Time;durP1;ratioP1;P1;durP2;ratioP2;P2;SDS_P1;SDS_P2;PMS_P1;PMS_P2;Temp;Humidity;BMP_temperature;BMP_pressure;BME280_temperature;BME280_humidity;BME280_pressure;Samples;Min_cycle;Max_cycle;Signal;HPM_P1;HPM_P2
2022/05/08 00:02:09;;;;;;;13.57;12.00;;;9.70;99.90;;;;;;4933894;29;20211;-71
2022/05/08 00:04:35;;;;;;;11.27;10.27;;;9.70;99.90;;;;;;4933997;29;20657;-70
2022/05/08 00:07:00;;;;;;;13.07;11.03;;;9.70;99.90;;;;;;4934258;29;20497;-71
2022/05/08 00:09:26;;;;;;;17.17;10.40;;;9.70;99.90;;;;;;4934203;29;20542;-70
2022/05/08 00:11:52;;;;;;;13.30;11.77;;;9.60;99.90;;;;;;4918902;29;20211;-70
2022/05/08 00:14:18;;;;;;;17.57;12.70;;;9.70;99.90;;;;;;4915153;29;20181;-70
2022/05/08 00:16:44;;;;;;;13.07;11.70;;;9.60;99.90;;;;;;4915253;29;20429;-71
2022/05/08 00:19:09;;;;;;;15.37;12.53;;;9.60;99.90;;;;;;4913869;29;20472;-70
2022/05/08 00:21:35;;;;;;;17.73;13.03;;;9.60;99.90;;;;;;4914712;29;20204;-71
2022/05/08 00:24:00;;;;;;;13.77;11.80;;;9.60;99.90;;;;;;4915186;29;20215;-71
2022/05/08 00:26:26;;;;;;;13.37;12.03;;;9.60;99.90;;;;;;4914850;29;20177;-71
2022/05/08 00:28:51;;;;;;;13.47;12.03;;;9.60;99.90;;;;;;4915177;29;20181;-70
2022/05/08 00:31:17;;;;;;;13.53;12.03;;;9.50;99.90;;;;;;4914434;29;20303;-70
2022/05/08 00:33:42;;;;;;;12.83;11.73;;;9.40;99.90;;;;;;4915040;29;20682;-71
2022/05/08 00:36:08;;;;;;;14.87;12.03;;;9.40;99.90;;;;;;4914899;29;20670;-70
2022/05/08 00:38:34;;;;;;;14.80;13.00;;;9.40;99.90;;;;;;4915065;29;20187;-71
2022/05/08 00:40:59;;;;;;;13.77;12.27;;;9.30;99.90;;;;;;4914696;29;20540;-71
2022/05/08 00:43:37;;;;;;;15.20;13.17;;;9.30;99.90;;;;;;4914876;29;20203;-70
2022/05/08 00:46:06;;;;;;;15.23;12.97;;;9.30;99.90;;;;;;4914855;29;20202;-71
2022/05/08 00:48:32;;;;;;;14.33;12.83;;;9.30;99.90;;;;;;4915063;29;20451;-71
2022/05/08 00:50:59;;;;;;;14.50;12.70;;;9.30;99.90;;;;;;4914726;29;20861;-71
2022/05/08 00:53:27;;;;;;;23.63;13.10;;;9.20;99.90;;;;;;4913750;29;20440;-71
2022/05/08 00:55:54;;;;;;;15.17;13.20;;;9.20;99.90;;;;;;4917426;29;20419;-70
2022/05/08 00:58:19;;;;;;;17.57;13.43;;;9.20;99.90;;;;;;4919503;29;20430;-70
2022/05/08 02:31:22;;;;;;;17.27;13.63;;;8.50;99.90;;;;;;5661655;23;21097;-70
2022/05/08 02:33:48;;;;;;;17.43;15.60;;;8.50;99.90;;;;;;4964325;28;20414;-70
2022/05/08 02:36:14;;;;;;;17.13;15.20;;;8.50;99.90;;;;;;4970467;28;20238;-69
2022/05/08 02:38:39;;;;;;;16.07;14.27;;;8.50;99.90;;;;;;4954930;28;20422;-69
2022/05/08 02:41:05;;;;;;;17.40;15.50;;;8.50;99.90;;;;;;4954524;28;20199;-69
2022/05/08 02:43:31;;;;;;;18.73;15.03;;;8.50;99.90;;;;;;4955232;28;20748;-70
2022/05/08 02:45:59;;;;;;;17.67;15.67;;;8.40;99.90;;;;;;4955720;28;20648;-70
2022/05/08 02:48:25;;;;;;;15.90;14.10;;;8.40;99.90;;;;;;4955066;28;20191;-69
2022/05/08 02:50:51;;;;;;;18.33;14.27;;;8.40;99.90;;;;;;4954902;28;20831;-69
2022/05/08 02:53:16;;;;;;;18.53;15.67;;;8.30;99.90;;;;;;4955260;28;20430;-70
2022/05/08 02:58:32;;;;;;;18.20;15.67;;;8.30;99.90;;;;;;4954635;28;20250;-69
2022/05/08 03:00:59;;;;;;;17.07;15.23;;;8.30;99.90;;;;;;4954129;28;20429;-70
2022/05/08 03:03:25;;;;;;;17.30;15.43;;;8.30;99.90;;;;;;4954240;28;20471;-71
2022/05/08 03:05:51;;;;;;;22.97;16.70;;;8.30;99.90;;;;;;4954261;28;20496;-70
2022/05/08 03:08:17;;;;;;;18.20;15.40;;;8.30;99.90;;;;;;4954214;28;20180;-70
2022/05/08 03:13:29;;;;;;;18.37;16.50;;;8.20;99.90;;;;;;4954439;28;20473;-69
2022/05/08 03:15:55;;;;;;;19.70;16.03;;;8.20;99.90;;;;;;4954161;29;20428;-70
2022/05/08 03:18:21;;;;;;;20.03;15.53;;;8.20;99.90;;;;;;4953518;28;20414;-69
2022/05/08 03:20:47;;;;;;;18.73;16.23;;;8.20;99.90;;;;;;4953933;28;20428;-70
2022/05/08 03:23:14;;;;;;;18.67;16.07;;;8.20;99.90;;;;;;4953816;28;20286;-69
2022/05/08 03:25:40;;;;;;;17.70;15.50;;;8.20;99.90;;;;;;4954004;28;20419;-69
2022/05/08 03:28:05;;;;;;;23.87;17.37;;;8.20;99.90;;;;;;4953921;28;20416;-70
2022/05/08 03:30:31;;;;;;;19.80;16.20;;;8.10;99.90;;;;;;4953741;28;20655;-69
2022/05/08 03:32:58;;;;;;;17.87;15.47;;;8.10;99.90;;;;;;4953666;28;20215;-72
2022/05/08 03:35:23;;;;;;;20.90;15.80;;;8.10;99.90;;;;;;4953765;28;20179;-69
2022/05/08 03:37:49;;;;;;;19.70;17.60;;;8.10;99.90;;;;;;4953786;28;20949;-72
2022/05/08 03:40:15;;;;;;;17.10;14.77;;;8.10;99.90;;;;;;4953570;28;20727;-70
2022/05/08 03:42:42;;;;;;;17.13;13.97;;;8.10;99.90;;;;;;4953406;28;20209;-70
2022/05/08 03:45:08;;;;;;;17.70;15.63;;;8.10;99.90;;;;;;4953770;28;20180;-70
2022/05/08 03:47:33;;;;;;;18.67;15.17;;;8.10;99.90;;;;;;4953530;28;20411;-73
2022/05/08 03:49:59;;;;;;;17.80;15.87;;;8.10;99.90;;;;;;4953710;28;20396;-71
2022/05/08 03:52:24;;;;;;;18.03;15.80;;;8.10;99.90;;;;;;4953143;28;20212;-70
2022/05/08 03:54:50;;;;;;;21.30;16.50;;;8.00;99.90;;;;;;4953540;28;20660;-72
2022/05/08 03:57:15;;;;;;;19.00;14.87;;;8.00;99.90;;;;;;4953327;28;20190;-70
2022/05/08 03:59:41;;;;;;;17.90;15.30;;;8.00;99.90;;;;;;4953486;28;20242;-70
2022/05/08 04:02:06;;;;;;;22.23;15.10;;;8.00;99.90;;;;;;4953085;28;20716;-72
2022/05/08 04:04:32;;;;;;;22.30;16.00;;;8.10;99.90;;;;;;4953419;28;20214;-70
2022/05/08 04:06:57;;;;;;;19.63;16.13;;;8.00;99.90;;;;;;4953513;28;20169;-70
2022/05/08 04:09:23;;;;;;;22.47;15.93;;;8.00;99.90;;;;;;4953253;28;20177;-72
2022/05/08 04:11:48;;;;;;;18.83;16.90;;;8.00;99.90;;;;;;4953147;28;20240;-70
2022/05/08 04:14:14;;;;;;;18.90;15.53;;;8.00;99.90;;;;;;4953224;28;20189;-70
2022/05/08 04:16:39;;;;;;;17.30;15.50;;;8.00;99.90;;;;;;4953351;28;20639;-70
2022/05/08 04:19:06;;;;;;;19.53;15.80;;;8.10;99.90;;;;;;4953314;28;20181;-72
2022/05/08 04:21:32;;;;;;;20.47;15.77;;;8.10;99.90;;;;;;4952938;28;20193;-70
2022/05/08 04:26:42;;;;;;;19.30;15.53;;;8.10;99.90;;;;;;4953450;29;20669;-72
2022/05/08 04:29:08;;;;;;;17.93;15.33;;;8.20;99.90;;;;;;4953462;28;20417;-70
2022/05/08 04:31:33;;;;;;;17.70;15.93;;;8.20;99.90;;;;;;4955358;28;20213;-70
2022/05/08 04:34:00;;;;;;;16.50;14.80;;;8.20;99.90;;;;;;4957195;28;20189;-70
2022/05/08 04:36:26;;;;;;;20.63;14.90;;;8.20;99.90;;;;;;4956766;28;20207;-70
2022/05/08 04:38:52;;;;;;;17.50;14.77;;;8.30;99.90;;;;;;4957024;28;20938;-70
2022/05/08 04:41:18;;;;;;;16.60;14.87;;;8.30;99.90;;;;;;4959035;28;20210;-71
2022/05/08 04:43:44;;;;;;;16.77;14.90;;;8.30;99.90;;;;;;4959494;28;20202;-72
2022/05/08 04:46:11;;;;;;;16.87;15.07;;;8.40;99.90;;;;;;4959629;28;20419;-72
2022/05/08 04:48:37;;;;;;;20.07;16.47;;;8.40;99.90;;;;;;4958906;28;20410;-71
2022/05/08 04:51:03;;;;;;;19.33;15.90;;;8.40;99.90;;;;;;4959034;28;20437;-71
2022/05/08 04:53:30;;;;;;;17.00;14.90;;;8.50;99.90;;;;;;4957660;28;20792;-70
2022/05/08 04:55:56;;;;;;;24.43;15.33;;;8.50;99.90;;;;;;4956803;28;20626;-72
2022/05/08 04:58:22;;;;;;;19.47;16.17;;;8.60;99.90;;;;;;4957398;28;20435;-71
2022/05/08 05:00:47;;;;;;;19.83;16.57;;;8.70;99.90;;;;;;4956516;28;20179;-70
2022/05/08 05:03:13;;;;;;;22.37;16.20;;;8.80;99.90;;;;;;4956368;28;20562;-70
2022/05/08 05:05:38;;;;;;;18.27;16.17;;;8.80;99.90;;;;;;4956583;28;20182;-70
2022/05/08 05:08:06;;;;;;;18.60;15.70;;;8.90;99.90;;;;;;4956482;28;20233;-70
2022/05/08 05:10:31;;;;;;;17.80;16.00;;;8.90;99.90;;;;;;4956351;28;20671;-71
2022/05/08 05:12:57;;;;;;;18.57;16.20;;;9.00;99.90;;;;;;4956240;28;20434;-70
2022/05/08 05:15:24;;;;;;;18.07;15.83;;;9.00;99.90;;;;;;4956308;28;20185;-70
2022/05/08 05:17:52;;;;;;;20.13;17.83;;;9.10;99.90;;;;;;4956315;28;20658;-71
2022/05/08 05:20:18;;;;;;;22.13;18.63;;;9.20;99.90;;;;;;4956153;28;20910;-70
2022/05/08 05:22:43;;;;;;;20.30;16.27;;;9.30;99.90;;;;;;4955742;28;20473;-72
2022/05/08 05:25:09;;;;;;;18.63;16.20;;;9.40;99.90;;;;;;4956239;28;20708;-70
2022/05/08 05:27:35;;;;;;;18.37;16.43;;;9.40;99.90;;;;;;4955991;28;20176;-71
2022/05/08 05:30:03;;;;;;;19.43;16.00;;;9.50;99.90;;;;;;4956249;28;20554;-72
2022/05/08 05:32:29;;;;;;;18.17;16.30;;;9.60;99.90;;;;;;4955448;28;20218;-72
2022/05/08 05:34:54;;;;;;;21.10;16.67;;;9.70;99.90;;;;;;4956084;28;20462;-70
2022/05/08 05:37:20;;;;;;;18.77;15.93;;;9.90;99.90;;;;;;4955705;28;20270;-70
2022/05/08 05:39:46;;;;;;;18.73;16.93;;;10.10;99.90;;;;;;4955886;28;20201;-70
2022/05/08 05:42:11;;;;;;;19.10;16.50;;;10.60;99.90;;;;;;4955075;28;20683;-70
2022/05/08 05:44:38;;;;;;;17.93;16.13;;;11.00;99.90;;;;;;4955714;28;20630;-70
2022/05/08 05:49:47;;;;;;;18.50;14.90;;;11.00;99.90;;;;;;4955662;28;20463;-71
2022/05/08 05:52:13;;;;;;;18.03;14.73;;;11.10;99.90;;;;;;4955207;28;20443;-70
2022/05/08 05:54:38;;;;;;;17.57;15.73;;;11.00;99.90;;;;;;4955478;28;20251;-70
2022/05/08 05:57:04;;;;;;;19.00;15.80;;;11.00;99.90;;;;;;4955528;28;20520;-69
2022/05/08 05:59:30;;;;;;;18.00;16.03;;;10.90;99.90;;;;;;4955250;28;20215;-69
2022/05/08 06:01:56;;;;;;;22.43;17.43;;;11.00;99.90;;;;;;4955155;28;20200;-70
2022/05/08 06:04:21;;;;;;;21.53;17.27;;;11.00;99.90;;;;;;4955194;28;20177;-70
2022/05/08 06:06:47;;;;;;;23.83;17.30;;;11.10;99.90;;;;;;4955323;28;20420;-71
2022/05/08 06:09:12;;;;;;;23.20;16.67;;;11.20;99.90;;;;;;4955181;28;20596;-70
2022/05/08 06:11:38;;;;;;;19.50;16.10;;;11.20;99.90;;;;;;4955005;28;20200;-71
2022/05/08 06:14:03;;;;;;;18.27;16.33;;;11.30;99.90;;;;;;4955210;28;20187;-71
2022/05/08 06:16:31;;;;;;;18.17;16.23;;;11.60;99.90;;;;;;4955021;28;20177;-70
2022/05/08 06:18:57;;;;;;;17.93;15.27;;;11.80;99.90;;;;;;4955220;28;20173;-70
2022/05/08 06:21:23;;;;;;;19.23;16.20;;;12.00;99.90;;;;;;4954569;28;20556;-71
2022/05/08 06:23:48;;;;;;;18.10;15.07;;;12.00;99.90;;;;;;4954970;28;20842;-70
2022/05/08 06:26:15;;;;;;;18.63;16.63;;;12.00;99.90;;;;;;4954827;28;20185;-70
2022/05/08 06:28:41;;;;;;;20.47;16.30;;;12.20;99.90;;;;;;4954877;28;20187;-70
2022/05/08 06:31:07;;;;;;;19.20;16.63;;;12.30;99.90;;;;;;4954370;28;20440;-70
2022/05/08 06:33:32;;;;;;;20.33;17.20;;;12.40;99.90;;;;;;4954890;28;20495;-70
2022/05/08 06:35:58;;;;;;;19.60;17.57;;;12.60;99.90;;;;;;4954965;28;20200;-71
2022/05/08 06:38:24;;;;;;;19.70;17.57;;;12.80;99.90;;;;;;4954741;28;20549;-71
2022/05/08 06:40:50;;;;;;;20.70;18.60;;;12.90;99.90;;;;;;4954485;28;20180;-71
2022/05/08 06:43:15;;;;;;;21.90;17.43;;;13.00;99.90;;;;;;4954355;28;20455;-71
2022/05/08 06:45:43;;;;;;;22.27;17.80;;;13.20;99.90;;;;;;4946171;28;20197;-71
2022/05/08 06:48:09;;;;;;;20.83;18.40;;;13.40;99.90;;;;;;4940238;29;20186;-71
2022/05/08 06:50:35;;;;;;;19.23;17.37;;;13.50;99.90;;;;;;4934920;29;20413;-70
2022/05/08 06:53:03;;;;;;;20.13;18.10;;;13.60;99.90;;;;;;4937255;29;20203;-71
2022/05/08 06:55:28;;;;;;;18.83;16.47;;;13.70;99.90;;;;;;4952730;28;20468;-72
2022/05/08 06:57:54;;;;;;;20.80;16.77;;;14.00;99.90;;;;;;4953311;28;20507;-73
2022/05/08 07:03:07;;;;;;;21.20;18.93;;;14.10;99.90;;;;;;4952397;28;20303;-72
2022/05/08 07:05:37;;;;;;;19.23;17.33;;;14.30;99.90;;;;;;4952971;28;20471;-72
2022/05/08 07:08:03;;;;;;;21.03;18.90;;;14.40;99.90;;;;;;4953166;28;20511;-71
2022/05/08 07:10:28;;;;;;;23.90;20.17;;;14.50;99.90;;;;;;4952955;28;20951;-71
2022/05/08 07:12:55;;;;;;;21.57;18.20;;;14.60;99.90;;;;;;4953212;28;20255;-71
2022/05/08 07:15:21;;;;;;;23.30;19.80;;;14.70;99.90;;;;;;4952927;28;20226;-71
2022/05/08 07:17:46;;;;;;;22.90;19.37;;;14.80;99.90;;;;;;4953222;28;20440;-69
2022/05/08 07:20:12;;;;;;;25.70;21.13;;;15.00;99.90;;;;;;4954940;28;20692;-72
2022/05/08 07:22:38;;;;;;;20.30;17.77;;;15.20;99.90;;;;;;4953362;28;20307;-71
2022/05/08 07:25:04;;;;;;;22.30;19.13;;;15.50;99.90;;;;;;4953193;28;20331;-71
2022/05/08 07:27:31;;;;;;;25.97;19.23;;;15.60;99.90;;;;;;4952809;28;20201;-71
2022/05/08 07:29:56;;;;;;;19.90;17.80;;;15.70;99.90;;;;;;4952980;28;20554;-71
2022/05/08 07:32:24;;;;;;;19.27;17.27;;;15.90;99.90;;;;;;4952233;28;20610;-70
2022/05/08 07:37:34;;;;;;;20.17;18.17;;;16.30;99.90;;;;;;4952799;28;20872;-73
2022/05/08 07:39:59;;;;;;;19.50;17.43;;;16.50;99.90;;;;;;4952780;28;20535;-70
2022/05/08 07:42:25;;;;;;;20.73;17.60;;;16.50;99.90;;;;;;4952086;28;20225;-70
2022/05/08 07:44:50;;;;;;;22.00;17.30;;;16.60;99.90;;;;;;4953316;28;20220;-71
2022/05/08 07:47:16;;;;;;;20.07;17.70;;;16.60;99.90;;;;;;4952730;28;20689;-70
2022/05/08 07:49:42;;;;;;;19.77;17.77;;;16.50;99.90;;;;;;4952827;28;20286;-71
2022/05/08 07:52:07;;;;;;;19.23;17.10;;;16.60;99.90;;;;;;4952431;28;20208;-71
2022/05/08 07:54:33;;;;;;;19.97;17.17;;;16.70;99.90;;;;;;4952702;28;20208;-71
2022/05/08 07:56:58;;;;;;;19.67;17.67;;;16.90;99.90;;;;;;4952730;28;20212;-71
2022/05/08 07:59:24;;;;;;;21.73;17.37;;;16.90;99.90;;;;;;4952706;28;20203;-72
2022/05/08 08:01:49;;;;;;;19.33;16.50;;;16.80;99.90;;;;;;4971495;28;20771;-71
2022/05/08 08:04:15;;;;;;;19.43;17.37;;;16.80;99.90;;;;;;4972347;28;20959;-72
2022/05/08 08:06:40;;;;;;;18.73;16.97;;;17.00;99.90;;;;;;4955356;28;20176;-71
2022/05/08 08:09:06;;;;;;;19.20;16.77;;;16.90;99.90;;;;;;4972607;28;20176;-72
2022/05/08 08:11:32;;;;;;;17.80;16.13;;;17.10;99.90;;;;;;4972323;28;20715;-72
2022/05/08 08:13:58;;;;;;;16.67;14.93;;;17.10;99.90;;;;;;4972604;28;20184;-71
2022/05/08 08:16:24;;;;;;;17.90;16.27;;;17.20;99.90;;;;;;4972418;28;20178;-72
2022/05/08 08:18:54;;;;;;;17.00;15.33;;;17.30;99.90;;;;;;4987441;28;20195;-71
2022/05/08 08:21:19;;;;;;;17.17;15.50;;;17.40;99.90;;;;;;4971061;28;20442;-72
2022/05/08 08:23:45;;;;;;;16.07;14.40;;;17.50;99.90;;;;;;4972401;28;20490;-71
2022/05/08 08:26:12;;;;;;;17.63;15.83;;;17.80;99.90;;;;;;4972321;28;20240;-70
2022/05/08 08:28:38;;;;;;;15.80;14.30;;;18.00;99.90;;;;;;4972299;28;20618;-71
2022/05/08 08:31:07;;;;;;;17.50;15.73;;;18.20;99.90;;;;;;4971542;28;20439;-71
2022/05/08 08:33:36;;;;;;;18.00;15.37;;;18.40;99.90;;;;;;4972033;28;20176;-71
2022/05/08 08:36:01;;;;;;;16.17;14.47;;;18.60;99.90;;;;;;4972414;28;20449;-71
2022/05/08 08:38:28;;;;;;;16.90;15.40;;;18.90;99.90;;;;;;4972144;28;21153;-72
2022/05/08 08:40:55;;;;;;;16.60;14.90;;;19.20;99.90;;;;;;4971988;28;20215;-71
2022/05/08 08:43:21;;;;;;;15.93;14.43;;;19.20;99.90;;;;;;4971963;28;20466;-71
2022/05/08 08:48:34;;;;;;;13.77;12.37;;;20.20;99.90;;;;;;4972501;28;20191;-72
2022/05/08 08:51:01;;;;;;;13.87;12.40;;;20.50;99.90;;;;;;4971997;28;20533;-71
2022/05/08 08:53:28;;;;;;;14.77;13.30;;;20.40;99.90;;;;;;4971945;28;20423;-72
2022/05/08 08:55:55;;;;;;;16.90;12.83;;;20.40;99.90;;;;;;4972226;28;20412;-71
2022/05/08 08:58:21;;;;;;;15.23;12.00;;;20.30;99.90;;;;;;4971945;28;20434;-71
2022/05/08 09:00:48;;;;;;;12.90;11.63;;;20.50;99.90;;;;;;4971888;28;20840;-71
2022/05/08 09:03:25;;;;;;;12.10;10.93;;;20.70;99.90;;;;;;4971715;28;20526;-71
2022/05/08 09:05:52;;;;;;;13.50;11.30;;;21.10;99.90;;;;;;4971687;28;20443;-70
2022/05/08 09:08:28;;;;;;;14.53;11.47;;;21.60;99.90;;;;;;4971284;28;20416;-71
2022/05/08 09:10:56;;;;;;;12.40;11.10;;;21.60;99.90;;;;;;4970597;28;20432;-71
2022/05/08 09:13:23;;;;;;;13.77;12.43;;;21.80;99.90;;;;;;4970069;28;20510;-71
2022/05/08 09:15:49;;;;;;;12.83;11.53;;;21.80;99.90;;;;;;4970958;28;20947;-71
2022/05/08 09:18:15;;;;;;;11.30;10.20;;;22.00;99.90;;;;;;4974583;28;20411;-72
2022/05/08 09:20:48;;;;;;;12.00;11.00;;;21.80;99.90;;;;;;4974569;28;20411;-71
2022/05/08 09:23:21;;;;;;;10.90;10.00;;;22.40;99.90;;;;;;4975046;28;20459;-71
2022/05/08 09:25:57;;;;;;;15.63;10.43;;;22.70;99.90;;;;;;4974754;28;20503;-72
2022/05/08 09:28:31;;;;;;;12.13;11.13;;;23.00;99.90;;;;;;4974025;28;20414;-71
2022/05/08 09:30:59;;;;;;;10.20;9.40;;;22.90;99.90;;;;;;4973534;28;20853;-72
2022/05/08 09:33:28;;;;;;;11.73;8.73;;;23.10;99.90;;;;;;4975147;28;20605;-72
2022/05/08 09:35:55;;;;;;;10.63;9.53;;;23.40;99.90;;;;;;4975301;28;20514;-72
2022/05/08 09:38:21;;;;;;;9.77;8.83;;;23.20;99.90;;;;;;4974917;28;20547;-71
2022/05/08 09:41:04;;;;;;;9.43;8.63;;;23.40;99.90;;;;;;4974806;28;20482;-72
2022/05/08 09:43:29;;;;;;;10.70;9.50;;;23.10;99.90;;;;;;4974869;28;20463;-72
2022/05/08 09:45:59;;;;;;;10.23;9.10;;;23.10;99.90;;;;;;4974987;28;20913;-70
2022/05/08 09:48:28;;;;;;;8.83;8.20;;;22.80;99.90;;;;;;4974596;28;20715;-73
2022/05/08 09:50:59;;;;;;;11.07;9.87;;;22.60;99.90;;;;;;4974533;28;20447;-71
2022/05/08 09:53:28;;;;;;;9.80;8.90;;;22.60;99.90;;;;;;4974691;28;20415;-72
2022/05/08 09:55:58;;;;;;;9.67;8.80;;;22.80;99.90;;;;;;4974764;28;20420;-72
2022/05/08 09:58:23;;;;;;;10.70;9.20;;;23.10;99.90;;;;;;4973938;28;20459;-72
2022/05/08 10:00:51;;;;;;;9.20;8.47;;;23.40;99.90;;;;;;4972755;28;20443;-71
2022/05/08 10:03:17;;;;;;;9.97;9.07;;;23.60;99.90;;;;;;4973296;28;20637;-72
2022/05/08 10:05:43;;;;;;;9.50;8.73;;;23.70;99.90;;;;;;4974713;28;20423;-72
2022/05/08 10:08:11;;;;;;;15.00;9.53;;;23.70;99.90;;;;;;4974365;28;20808;-72
2022/05/08 10:13:53;;;;;;;10.07;9.03;;;23.30;99.90;;;;;;4974826;28;20834;-73
2022/05/08 10:16:49;;;;;;;10.53;8.67;;;23.20;99.90;;;;;;4974404;28;20412;-72
2022/05/08 10:19:23;;;;;;;9.13;8.23;;;23.20;99.90;;;;;;4974318;28;20495;-72
2022/05/08 10:22:06;;;;;;;8.70;8.00;;;23.30;99.90;;;;;;4973997;28;20450;-71
2022/05/08 10:24:42;;;;;;;8.87;7.97;;;23.30;99.90;;;;;;4974237;28;20916;-72
2022/05/08 10:27:14;;;;;;;9.50;8.60;;;23.50;99.90;;;;;;4972795;28;20412;-70
2022/05/08 10:29:40;;;;;;;9.23;8.53;;;23.40;99.90;;;;;;4956182;28;20423;-72
2022/05/08 10:32:09;;;;;;;9.53;8.40;;;23.20;99.90;;;;;;4972106;28;20455;-72
2022/05/08 10:34:37;;;;;;;11.87;9.83;;;23.10;99.90;;;;;;4971028;28;20434;-72
2022/05/08 10:37:14;;;;;;;9.60;8.80;;;23.00;99.90;;;;;;4973779;28;20498;-72
2022/05/08 10:39:46;;;;;;;9.93;8.40;;;23.00;99.90;;;;;;4973875;28;20411;-72
2022/05/08 10:42:24;;;;;;;9.83;9.03;;;22.90;99.90;;;;;;4973465;28;20450;-72
2022/05/08 10:44:51;;;;;;;10.97;9.87;;;22.90;99.90;;;;;;4973803;28;20438;-72
2022/05/08 10:47:40;;;;;;;9.93;9.13;;;22.80;99.90;;;;;;4973718;28;20454;-74
2022/05/08 10:50:07;;;;;;;10.10;8.47;;;22.70;99.90;;;;;;4973883;28;20423;-72
2022/05/08 10:52:33;;;;;;;9.00;8.20;;;22.80;99.90;;;;;;4973206;28;20936;-72
2022/05/08 10:55:01;;;;;;;11.50;8.07;;;22.90;99.90;;;;;;4973840;28;20450;-72
2022/05/08 10:57:30;;;;;;;8.87;8.07;;;22.80;99.90;;;;;;4973586;28;20528;-72
2022/05/08 10:59:56;;;;;;;7.83;6.77;;;22.90;99.90;;;;;;4973497;28;20787;-72
2022/05/08 11:02:44;;;;;;;8.47;7.63;;;22.90;99.90;;;;;;4973430;28;20458;-72
2022/05/08 11:05:18;;;;;;;9.10;6.90;;;22.80;99.90;;;;;;4973691;28;20649;-71
2022/05/08 11:07:57;;;;;;;7.80;7.20;;;22.60;99.90;;;;;;4973308;28;20410;-72
2022/05/08 11:10:31;;;;;;;7.40;6.70;;;22.70;99.90;;;;;;4973464;28;20430;-71
2022/05/08 11:13:09;;;;;;;6.50;6.00;;;22.90;99.90;;;;;;4973044;28;20436;-72
2022/05/08 11:15:36;;;;;;;6.17;5.70;;;23.10;99.90;;;;;;4973193;28;20412;-72
2022/05/08 11:18:12;;;;;;;6.20;5.70;;;22.90;99.90;;;;;;4973242;28;20454;-72
2022/05/08 11:20:43;;;;;;;5.43;5.03;;;23.00;99.90;;;;;;4972888;28;20462;-72
2022/05/08 11:23:13;;;;;;;7.60;5.57;;;23.10;99.90;;;;;;4973098;28;20463;-72
2022/05/08 11:25:39;;;;;;;5.43;5.03;;;23.10;99.90;;;;;;4973171;28;20924;-70
2022/05/08 11:28:04;;;;;;;6.13;5.50;;;22.90;99.90;;;;;;4957351;28;20447;-72
2022/05/08 11:30:37;;;;;;;6.90;6.30;;;22.70;99.90;;;;;;4953778;28;20181;-72
2022/05/08 11:36:08;;;;;;;5.80;5.33;;;22.40;99.90;;;;;;4953479;28;20555;-72
2022/05/08 11:38:50;;;;;;;5.70;5.30;;;22.40;99.90;;;;;;4953193;28;20735;-71
2022/05/08 11:41:20;;;;;;;6.47;5.70;;;22.40;99.90;;;;;;4953257;28;21051;-72
2022/05/08 11:43:51;;;;;;;7.37;5.23;;;22.40;99.90;;;;;;4952122;28;21015;-73
2022/05/08 11:46:31;;;;;;;7.30;5.50;;;22.40;99.90;;;;;;4953486;28;20443;-72
2022/05/08 11:48:57;;;;;;;7.53;5.40;;;22.50;99.90;;;;;;4953516;28;20416;-71
2022/05/08 11:51:22;;;;;;;7.00;5.97;;;22.80;99.90;;;;;;4953061;28;20498;-70
2022/05/08 11:53:50;;;;;;;6.07;5.67;;;22.50;99.90;;;;;;4953209;28;20235;-69
2022/05/08 11:56:27;;;;;;;8.27;5.60;;;22.40;99.90;;;;;;4953506;28;20239;-71
2022/05/08 11:58:53;;;;;;;6.67;6.03;;;22.50;99.90;;;;;;4953291;28;20778;-71
2022/05/08 12:01:35;;;;;;;6.43;5.83;;;22.80;99.90;;;;;;4952722;28;20440;-71
2022/05/08 12:04:21;;;;;;;7.70;5.53;;;22.90;99.90;;;;;;4953185;28;20480;-68
2022/05/08 12:07:00;;;;;;;7.00;6.30;;;22.90;99.90;;;;;;4953037;28;20416;-71
2022/05/08 12:09:31;;;;;;;110.13;73.87;;;22.70;99.90;;;;;;4953168;28;20404;-71
2022/05/08 12:11:57;;;;;;;139.10;86.23;;;22.60;99.90;;;;;;4951394;28;20448;-72
2022/05/08 12:14:30;;;;;;;23.70;20.33;;;22.50;99.90;;;;;;4953217;28;20413;-71
2022/05/08 12:17:01;;;;;;;9.87;8.70;;;22.60;99.90;;;;;;4952880;28;20921;-71
2022/05/08 12:19:27;;;;;;;13.70;8.67;;;23.00;99.90;;;;;;4953299;28;20448;-73
2022/05/08 12:21:54;;;;;;;7.80;6.80;;;23.00;99.90;;;;;;4952909;28;20440;-72
2022/05/08 12:24:21;;;;;;;8.70;7.37;;;23.00;99.90;;;;;;4953336;28;20200;-73
2022/05/08 12:26:47;;;;;;;53.20;32.47;;;22.90;99.90;;;;;;4953137;28;20474;-73
2022/05/08 12:29:21;;;;;;;80.10;53.57;;;22.90;99.90;;;;;;4953080;28;20444;-73
2022/05/08 12:31:50;;;;;;;9.80;8.90;;;22.80;99.90;;;;;;4952487;28;20596;-73
2022/05/08 12:34:16;;;;;;;13.43;12.20;;;22.60;99.90;;;;;;4952989;28;20420;-73
2022/05/08 12:36:42;;;;;;;23.67;19.13;;;22.80;99.90;;;;;;4953349;28;20427;-73
2022/05/08 12:39:09;;;;;;;9.33;5.93;;;22.90;99.90;;;;;;4955266;28;20416;-73
2022/05/08 12:41:35;;;;;;;10.53;5.30;;;23.10;99.90;;;;;;4953863;28;20328;-73
2022/05/08 12:44:01;;;;;;;9.70;5.60;;;23.00;99.90;;;;;;4952911;28;20879;-72
2022/05/08 12:46:27;;;;;;;5.73;4.87;;;23.00;99.90;;;;;;4953565;28;20419;-73
2022/05/08 12:48:53;;;;;;;7.13;5.17;;;22.90;99.90;;;;;;4953699;28;20888;-72
2022/05/08 12:51:18;;;;;;;6.37;5.13;;;22.70;99.90;;;;;;4954207;28;20521;-72
2022/05/08 12:53:44;;;;;;;5.50;5.00;;;22.50;99.90;;;;;;4956703;28;20228;-72
2022/05/08 12:56:09;;;;;;;6.03;4.50;;;22.70;99.90;;;;;;4957731;28;20185;-73
2022/05/08 13:01:19;;;;;;;5.33;4.60;;;22.70;99.90;;;;;;4956337;29;20232;-71
2022/05/08 13:03:45;;;;;;;6.50;5.30;;;22.80;99.90;;;;;;4955855;28;21027;-72
2022/05/08 13:06:11;;;;;;;6.30;5.70;;;22.40;99.90;;;;;;4955881;28;20746;-71
2022/05/08 13:08:36;;;;;;;6.17;5.30;;;22.60;99.90;;;;;;4956098;28;20181;-71
2022/05/08 13:11:02;;;;;;;4.30;4.00;;;22.50;99.90;;;;;;4955841;28;20913;-71
2022/05/08 13:13:31;;;;;;;6.67;4.40;;;22.60;99.90;;;;;;4955924;28;20191;-71
2022/05/08 13:15:57;;;;;;;5.80;5.30;;;22.80;99.90;;;;;;4955712;28;20423;-70
2022/05/08 13:18:23;;;;;;;5.10;4.57;;;22.80;99.90;;;;;;4955768;28;20420;-71
2022/05/08 13:20:49;;;;;;;6.87;4.90;;;22.70;99.90;;;;;;4954585;28;21239;-71
2022/05/08 13:23:16;;;;;;;5.17;4.80;;;22.70;99.90;;;;;;4955900;28;20296;-72
2022/05/08 13:25:41;;;;;;;4.63;4.23;;;22.70;99.90;;;;;;4954868;28;20428;-71
2022/05/08 13:28:07;;;;;;;7.50;4.33;;;22.80;99.90;;;;;;4954751;28;20412;-70
2022/05/08 13:30:33;;;;;;;6.13;4.27;;;22.90;99.90;;;;;;4953819;28;20547;-71
2022/05/08 13:32:59;;;;;;;8.93;5.00;;;22.80;99.90;;;;;;4954504;28;20669;-71
2022/05/08 13:35:24;;;;;;;6.87;5.50;;;22.60;99.90;;;;;;4954858;28;20428;-70
2022/05/08 13:37:50;;;;;;;4.60;4.17;;;22.50;99.90;;;;;;4952074;28;20192;-71
2022/05/08 13:40:16;;;;;;;4.60;4.20;;;22.40;99.90;;;;;;4954002;28;20343;-71
2022/05/08 13:42:41;;;;;;;7.43;4.57;;;22.40;99.90;;;;;;4954918;28;20217;-71
2022/05/08 13:45:07;;;;;;;4.63;4.00;;;22.40;99.90;;;;;;4955780;28;20187;-71
2022/05/08 13:47:33;;;;;;;5.80;5.30;;;22.30;99.90;;;;;;4955314;29;20169;-70
2022/05/08 13:50:01;;;;;;;5.00;4.50;;;22.40;99.90;;;;;;4955600;28;20893;-70
2022/05/08 13:52:28;;;;;;;5.70;4.33;;;22.30;99.90;;;;;;4954483;28;20203;-71
2022/05/08 13:54:53;;;;;;;4.73;3.83;;;22.40;99.90;;;;;;4955143;28;20424;-72
2022/05/08 13:57:19;;;;;;;5.97;3.83;;;22.40;99.90;;;;;;4955422;28;20420;-72
2022/05/08 13:59:44;;;;;;;4.10;3.80;;;22.40;99.90;;;;;;4954978;28;20169;-72
2022/05/08 14:02:13;;;;;;;8.27;3.93;;;22.50;99.90;;;;;;4956523;28;20209;-72
2022/05/08 14:04:39;;;;;;;4.53;4.13;;;22.60;99.90;;;;;;4955408;28;20637;-73
2022/05/08 14:07:04;;;;;;;5.50;4.93;;;22.60;99.90;;;;;;4955220;28;20471;-71
2022/05/08 14:09:30;;;;;;;4.03;3.73;;;22.60;99.90;;;;;;4955172;29;20721;-72
2022/05/08 14:11:55;;;;;;;5.27;4.47;;;22.60;99.90;;;;;;4954959;28;20204;-73
2022/05/08 14:14:25;;;;;;;4.27;3.40;;;22.70;99.90;;;;;;4955163;28;20238;-71
2022/05/08 14:16:51;;;;;;;4.03;3.70;;;22.80;99.90;;;;;;4954927;28;20259;-72
2022/05/08 14:19:16;;;;;;;4.97;4.57;;;22.70;99.90;;;;;;4954967;28;20499;-71
2022/05/08 14:21:42;;;;;;;4.77;4.00;;;22.80;99.90;;;;;;4954699;28;20255;-72
2022/05/08 14:24:07;;;;;;;4.60;4.20;;;22.60;99.90;;;;;;4954806;28;20271;-71
2022/05/08 14:26:33;;;;;;;3.90;3.60;;;22.60;99.90;;;;;;4954979;28;20581;-71
2022/05/08 14:28:58;;;;;;;4.30;3.90;;;22.50;99.90;;;;;;4954892;28;20177;-73
2022/05/08 14:37:09;;;;;;;3.63;3.43;;;22.40;99.90;;;;;;4952395;29;20191;-72
2022/05/08 14:39:35;;;;;;;4.33;3.53;;;22.40;99.90;;;;;;4954004;28;20519;-72
2022/05/08 14:42:01;;;;;;;3.60;3.37;;;22.50;99.90;;;;;;4954050;28;20205;-71